createdAt,value
2016-04-11T00:02:08.557Z,1012.6
2016-04-11T00:05:18.472Z,1012.54
2016-04-11T00:08:27.917Z,1012.46
2016-04-11T00:11:37.957Z,1012.5
2016-04-11T00:14:50.590Z,1012.6
2016-04-11T00:18:02.961Z,1012.58
2016-04-11T00:21:13.922Z,1012.62
2016-04-11T00:24:23.758Z,1012.64
2016-04-11T00:27:36.172Z,1012.56
2016-04-11T00:30:51.165Z,1012.56
2016-04-11T00:33:54.692Z,1012.52
2016-04-11T00:37:04.455Z,1012.54
2016-04-11T00:40:13.510Z,1012.52
2016-04-11T00:43:24.268Z,1012.46
2016-04-11T00:46:36.667Z,1012.58
2016-04-11T00:49:52.426Z,1012.52
2016-04-11T00:52:55.890Z,1012.5
2016-04-11T00:56:07.725Z,1012.44
2016-04-11T00:59:17.123Z,1012.5
2016-04-11T01:02:27.288Z,1012.4
2016-04-11T01:05:43.624Z,1012.6
2016-04-11T01:08:51.023Z,1012.46
2016-04-11T01:11:54.536Z,1012.5
2016-04-11T01:15:06.624Z,1012.52
2016-04-11T01:18:15.368Z,1012.48
2016-04-11T01:21:27.876Z,1012.58
2016-04-11T01:24:38.133Z,1012.62
2016-04-11T01:27:50.548Z,1012.56
2016-04-11T01:31:01.621Z,1012.52
2016-04-11T01:34:14.130Z,1012.54
2016-04-11T01:37:26.371Z,1012.48
2016-04-11T01:40:35.738Z,1012.5
2016-04-11T01:43:51.966Z,1012.58
2016-04-11T01:46:55.586Z,1012.4
2016-04-11T01:50:08.062Z,1012.5
2016-04-11T01:53:17.227Z,1012.44
2016-04-11T01:56:26.392Z,1012.34
2016-04-11T01:59:36.290Z,1012.36
2016-04-11T02:02:52.688Z,1012.32
2016-04-11T02:05:56.105Z,1012.24
2016-04-11T02:09:05.989Z,1012.22
2016-04-11T02:12:14.403Z,1012.28
2016-04-11T02:15:22.942Z,1012.24
2016-04-11T02:18:35.279Z,1012.26
2016-04-11T02:21:48.599Z,1012.24
2016-04-11T02:24:52.185Z,1012.16
2016-04-11T02:28:04.430Z,1012.24
2016-04-11T02:31:16.829Z,1012.22
2016-04-11T02:34:29.166Z,1012.26
2016-04-11T02:37:45.564Z,1012.18
2016-04-11T02:40:52.900Z,1012.32
2016-04-11T02:43:56.426Z,1012.22
2016-04-11T02:47:05.701Z,1012.22
2016-04-11T02:50:18.114Z,1012.2
2016-04-11T02:53:30.529Z,1012.26
2016-04-11T02:56:47.036Z,1012.22
2016-04-11T02:59:50.295Z,1012.26
2016-04-11T03:03:00.008Z,1012.32
2016-04-11T03:06:11.470Z,1012.34
2016-04-11T03:09:20.712Z,1012.42
2016-04-11T03:12:32.971Z,1012.34
2016-04-11T03:15:46.135Z,1012.4
2016-04-11T03:18:49.674Z,1012.4
2016-04-11T03:22:00.029Z,1012.4
2016-04-11T03:25:12.474Z,1012.36
2016-04-11T03:28:24.889Z,1012.28
2016-04-11T03:31:37.240Z,1012.34
2016-04-11T03:34:51.702Z,1012.46
2016-04-11T03:37:55.022Z,1012.42
2016-04-11T03:41:04.096Z,1012.48
2016-04-11T03:44:16.572Z,1012.52
2016-04-11T03:47:26.721Z,1012.48
2016-04-11T03:50:36.307Z,1012.56
2016-04-11T03:53:51.081Z,1012.44
2016-04-11T03:56:54.714Z,1012.46
2016-04-11T04:00:06.803Z,1012.38
2016-04-11T04:03:19.186Z,1012.38
2016-04-11T04:06:31.881Z,1012.42
2016-04-11T04:09:47.608Z,1012.48
2016-04-11T04:12:50.930Z,1012.48
2016-04-11T04:16:03.268Z,1012.42
2016-04-11T04:19:15.744Z,1012.38
2016-04-11T04:22:28.081Z,1012.32
2016-04-11T04:25:44.525Z,1012.34
2016-04-11T04:28:52.181Z,1012.38
2016-04-11T04:31:55.585Z,1012.38
2016-04-11T04:35:07.985Z,1012.32
2016-04-11T04:38:20.120Z,1012.36
2016-04-11T04:41:32.214Z,1012.38
2016-04-11T04:44:48.305Z,1012.26
2016-04-11T04:47:51.830Z,1012.3
2016-04-11T04:51:04.203Z,1012.34
2016-04-11T04:54:14.290Z,1012.1
2016-04-11T04:57:26.704Z,1012.32
2016-04-11T05:00:39.275Z,1012.18
2016-04-11T05:03:51.267Z,1012.18
2016-04-11T05:07:02.481Z,1012.22
2016-04-11T05:10:15.911Z,1012.14
2016-04-11T05:13:26.028Z,1012.28
2016-04-11T05:16:36.068Z,1012.26
2016-04-11T05:19:52.419Z,1012.26
2016-04-11T05:22:55.849Z,1012.4
2016-04-11T05:26:07.579Z,1012.3
2016-04-11T05:29:19.806Z,1012.2
2016-04-11T05:32:32.657Z,1012.22
2016-04-11T05:35:45.697Z,1012.38
2016-04-11T05:38:53.267Z,1012.38
2016-04-11T05:41:56.791Z,1012.4
2016-04-11T05:45:07.739Z,1012.5
2016-04-11T05:48:18.529Z,1012.4
2016-04-11T05:51:28.083Z,1012.4
2016-04-11T05:54:44.451Z,1012.36
2016-04-11T05:57:51.960Z,1012.4
2016-04-11T06:00:55.312Z,1012.38
2016-04-11T06:04:07.306Z,1012.54
2016-04-11T06:07:17.876Z,1012.58
2016-04-11T06:10:27.134Z,1012.38
2016-04-11T06:13:37.471Z,1012.48
2016-04-11T06:16:51.792Z,1012.52
2016-04-11T06:19:55.346Z,1012.4
2016-04-11T06:23:07.124Z,1012.38
2016-04-11T06:26:19.788Z,1012.32
2016-04-11T06:29:29.077Z,1012.3
2016-04-11T06:32:45.741Z,1012.36
2016-04-11T06:35:53.389Z,1012.18
2016-04-11T06:38:57.725Z,1012.38
2016-04-11T06:42:10.237Z,1012.32
2016-04-11T06:45:20.198Z,1012.28
2016-04-11T06:48:32.597Z,1012.4
2016-04-11T06:51:49.166Z,1012.48
2016-04-11T06:54:53.002Z,1012.4
2016-04-11T06:58:05.371Z,1012.38
2016-04-11T07:01:18.068Z,1012.34
2016-04-11T07:04:27.702Z,1012.36
2016-04-11T07:07:37.695Z,1012.5
2016-04-11T07:10:50.546Z,1012.46
2016-04-11T07:14:03.086Z,1012.4
2016-04-11T07:17:14.097Z,1012.42
2016-04-11T07:20:26.855Z,1012.42
2016-04-11T07:23:37.019Z,1012.42
2016-04-11T07:26:49.763Z,1012.34
2016-04-11T07:29:59.756Z,1012.36
2016-04-11T07:33:12.642Z,1012.18
2016-04-11T07:36:23.993Z,1012.26
2016-04-11T07:39:36.736Z,1012.26
2016-04-11T07:42:51.416Z,1012.2
2016-04-11T07:45:55.220Z,1012.34
2016-04-11T07:49:06.198Z,1012.34
2016-04-11T07:52:18.973Z,1012.28
2016-04-11T07:55:29.263Z,1012.28
2016-04-11T07:58:46.130Z,1012.16
2016-04-11T08:01:50.138Z,1012.2
2016-04-11T08:05:00.771Z,1012.18
2016-04-11T08:08:11.954Z,1012.3
2016-04-11T08:11:24.827Z,1012.18
2016-04-11T08:14:37.694Z,1012.12
2016-04-11T08:17:52.707Z,1011.88
2016-04-11T08:20:57.185Z,1011.23
2016-04-11T08:24:10.584Z,1011.66
2016-04-11T08:27:23.999Z,1011.64
2016-04-11T08:30:37.492Z,1010.99
2016-04-11T08:33:51.500Z,1011.47
2016-04-11T08:37:03.445Z,1011.45
2016-04-11T08:40:14.816Z,1011.61
2016-04-11T08:43:26.699Z,1011.59
2016-04-11T08:46:36.894Z,1011.72
2016-04-11T08:49:53.543Z,1011.82
2016-04-11T08:52:57.879Z,1011.96
2016-04-11T08:56:10.890Z,1012.06
2016-04-11T08:59:23.710Z,1012
2016-04-11T09:02:36.703Z,1011.98
2016-04-11T09:05:50.476Z,1012.02
2016-04-11T09:08:54.734Z,1012.12
2016-04-11T09:12:05.711Z,1012.14
2016-04-11T09:15:17.988Z,1012.16
2016-04-11T09:18:31.324Z,1012.1
2016-04-11T09:21:48.238Z,1012.06
2016-04-11T09:24:52.699Z,1012.06
2016-04-11T09:28:05.192Z,1012.02
2016-04-11T09:31:18.515Z,1012.06
2016-04-11T09:34:31.570Z,1012.12
2016-04-11T09:37:45.172Z,1012.12
2016-04-11T09:40:53.399Z,1012.1
2016-04-11T09:43:57.814Z,1011.94
2016-04-11T09:47:10.949Z,1012.04
2016-04-11T09:50:24.066Z,1012.02
2016-04-11T09:53:37.012Z,1011.96
2016-04-11T09:56:50.177Z,1011.92
2016-04-11T10:00:03.637Z,1011.94
2016-04-11T10:03:14.007Z,1011.88
2016-04-11T10:06:27.234Z,1011.72
2016-04-11T10:09:44.759Z,1011.72
2016-04-11T10:12:53.453Z,1011.55
2016-04-11T10:15:58.305Z,1011.55
2016-04-11T10:19:09.188Z,1011.59
2016-04-11T10:22:20.808Z,1011.47
2016-04-11T10:25:34.176Z,1011.47
2016-04-11T10:28:50.419Z,1011.45
2016-04-11T10:31:53.911Z,1011.53
2016-04-11T10:35:08.638Z,1011.59
2016-04-11T10:38:21.930Z,1011.68
2016-04-11T10:41:35.156Z,1011.57
2016-04-11T10:44:52.149Z,1011.55
2016-04-11T10:47:56.844Z,1011.57
2016-04-11T10:51:09.993Z,1011.59
2016-04-11T10:54:23.082Z,1011.7
2016-04-11T10:57:36.185Z,1011.51
2016-04-11T11:00:49.942Z,1011.53
2016-04-11T11:03:54.544Z,1011.53
2016-04-11T11:07:07.723Z,1011.55
2016-04-11T11:10:20.938Z,1011.59
2016-04-11T11:13:34.087Z,1011.55
2016-04-11T11:16:51.219Z,1011.68
2016-04-11T11:19:55.618Z,1011.57
2016-04-11T11:23:05.688Z,1011.64
2016-04-11T11:26:17.074Z,1011.61
2016-04-11T11:29:26.693Z,1011.45
2016-04-11T11:32:39.762Z,1011.39
2016-04-11T11:35:53.239Z,1011.45
2016-04-11T11:39:06.592Z,1011.59
2016-04-11T11:42:19.367Z,1011.53
2016-04-11T11:45:32.532Z,1011.51
2016-04-11T11:48:48.494Z,1011.51
2016-04-11T11:51:52.844Z,1011.51
2016-04-11T11:55:03.853Z,1011.49
2016-04-11T11:58:16.770Z,1011.53
2016-04-11T12:01:25.794Z,1011.47
2016-04-11T12:04:40.021Z,1011.43
2016-04-11T12:07:52.903Z,1011.51
2016-04-11T12:11:03.068Z,1011.35
2016-04-11T12:14:16.298Z,1011.47
2016-04-11T12:17:28.322Z,1011.43
2016-04-11T12:20:45.500Z,1011.49
2016-04-11T12:23:49.838Z,1011.41
2016-04-11T12:27:02.955Z,1011.33
2016-04-11T12:30:14.044Z,1011.27
2016-04-11T12:33:27.317Z,1011.25
2016-04-11T12:36:38.637Z,1011.35
2016-04-11T12:39:50.193Z,1011.25
2016-04-11T12:43:03.419Z,1011.25
2016-04-11T12:46:16.836Z,1011.07
2016-04-11T12:49:30.001Z,1011.13
2016-04-11T12:52:46.587Z,1011.05
2016-04-11T12:55:51.188Z,1011.01
2016-04-11T12:59:04.618Z,1010.99
2016-04-11T13:02:17.567Z,1011.09
2016-04-11T13:05:30.887Z,1010.91
2016-04-11T13:08:47.270Z,1010.75
2016-04-11T13:11:51.701Z,1010.75
2016-04-11T13:15:02.834Z,1010.85
2016-04-11T13:18:16.188Z,1010.65
2016-04-11T13:21:25.524Z,1010.81
2016-04-11T13:24:35.111Z,1010.77
2016-04-11T13:27:52.134Z,1010.79
2016-04-11T13:30:56.730Z,1010.71
2016-04-11T13:34:08.202Z,1010.61
2016-04-11T13:37:21.480Z,1010.59
2016-04-11T13:40:32.198Z,1010.53
2016-04-11T13:43:47.473Z,1010.39
2016-04-11T13:46:52.008Z,1010.47
2016-04-11T13:50:05.070Z,1010.49
2016-04-11T13:53:17.256Z,1010.37
2016-04-11T13:56:30.094Z,1010.41
2016-04-11T13:59:45.493Z,1010.49
2016-04-11T14:02:53.751Z,1010.41
2016-04-11T14:05:58.197Z,1010.37
2016-04-11T14:09:11.314Z,1010.43
2016-04-11T14:12:24.575Z,1010.31
2016-04-11T14:15:37.865Z,1010.27
2016-04-11T14:18:52.982Z,1010.11
2016-04-11T14:21:57.271Z,1010.17
2016-04-11T14:25:10.232Z,1010.19
2016-04-11T14:28:23.290Z,1010.15
2016-04-11T14:31:34.829Z,1010.23
2016-04-11T14:34:52.009Z,1010.15
2016-04-11T14:37:56.439Z,1010.09
2016-04-11T14:41:09.901Z,1010.05
2016-04-11T14:44:22.958Z,1010.13
2016-04-11T14:47:32.388Z,1009.99
2016-04-11T14:50:49.474Z,1010.05
2016-04-11T14:53:53.920Z,1009.99
2016-04-11T14:57:07.054Z,1010.01
2016-04-11T15:00:20.361Z,1010.01
2016-04-11T15:03:33.572Z,1010.07
2016-04-11T15:06:50.673Z,1010.03
2016-04-11T15:09:55.103Z,1010.03
2016-04-11T15:13:09.971Z,1010.01
2016-04-11T15:16:14.322Z,1010.11
2016-04-11T15:19:25.927Z,1010.05
2016-04-11T15:22:39.248Z,1010.05
2016-04-11T15:25:52.084Z,1010.03
2016-04-11T15:29:02.842Z,1010.07
2016-04-11T15:32:14.662Z,1010.05
2016-04-11T15:35:27.580Z,1009.91
2016-04-11T15:38:44.588Z,1009.95
2016-04-11T15:41:52.878Z,1009.97
2016-04-11T15:44:57.136Z,1009.87
2016-04-11T15:48:10.190Z,1009.97
2016-04-11T15:51:23.279Z,1009.97
2016-04-11T15:54:36.537Z,1009.95
2016-04-11T15:57:53.686Z,1010.03
2016-04-11T16:00:58.068Z,1009.97
2016-04-11T16:04:09.686Z,1009.97
2016-04-11T16:07:21.822Z,1010.01
2016-04-11T16:10:35.721Z,1009.95
2016-04-11T16:13:52.808Z,1009.89
2016-04-11T16:16:57.096Z,1009.87
2016-04-11T16:20:07.760Z,1009.84
2016-04-11T16:23:19.318Z,1009.87
2016-04-11T16:26:32.279Z,1009.91
2016-04-11T16:29:47.944Z,1009.91
2016-04-11T16:32:52.452Z,1009.8
2016-04-11T16:36:05.553Z,1009.85
2016-04-11T16:39:18.484Z,1009.78
2016-04-11T16:42:31.572Z,1009.8
2016-04-11T16:45:48.722Z,1009.74
2016-04-11T16:48:52.952Z,1009.68
2016-04-11T16:52:05.991Z,1009.62
2016-04-11T16:55:19.078Z,1009.58
2016-04-11T16:58:32.244Z,1009.62
2016-04-11T17:01:47.549Z,1009.6
2016-04-11T17:04:51.807Z,1009.6
2016-04-11T17:08:04.847Z,1009.58
2016-04-11T17:11:17.558Z,1009.54
2016-04-11T17:14:29.600Z,1009.58
2016-04-11T17:17:47.889Z,1009.56
2016-04-11T17:20:52.178Z,1009.54
2016-04-11T17:24:04.842Z,1009.52
2016-04-11T17:27:16.335Z,1009.52
2016-04-11T17:30:30.283Z,1009.44
2016-04-11T17:33:47.463Z,1009.54
2016-04-11T17:36:50.644Z,1009.5
2016-04-11T17:40:04.948Z,1009.54
2016-04-11T17:43:18.050Z,1009.4
2016-04-11T17:46:28.342Z,1009.46
2016-04-11T17:49:45.350Z,1009.44
2016-04-11T17:52:53.686Z,1009.38
2016-04-11T17:55:57.945Z,1009.44
2016-04-11T17:59:08.453Z,1009.4
2016-04-11T18:02:21.604Z,1009.44
2016-04-11T18:05:34.300Z,1009.36
2016-04-11T18:08:51.226Z,1009.34
2016-04-11T18:11:54.295Z,1009.34
2016-04-11T18:15:08.616Z,1009.36
2016-04-11T18:18:19.265Z,1009.38
2016-04-11T18:21:32.558Z,1009.36
2016-04-11T18:24:46.471Z,1009.44
2016-04-11T18:27:50.557Z,1009.54
2016-04-11T18:31:03.518Z,1009.56
2016-04-11T18:34:16.621Z,1009.6
2016-04-11T18:37:29.773Z,1009.64
2016-04-11T18:40:45.156Z,1009.52
2016-04-11T18:43:53.225Z,1009.62
2016-04-11T18:46:57.359Z,1009.54
2016-04-11T18:50:10.445Z,1009.66
2016-04-11T18:53:23.128Z,1009.58
2016-04-11T18:56:34.713Z,1009.5
2016-04-11T18:59:51.535Z,1009.66
2016-04-11T19:02:55.725Z,1009.66
2016-04-11T19:06:07.155Z,1009.56
2016-04-11T19:09:19.857Z,1009.64
2016-04-11T19:12:32.820Z,1009.56
2016-04-11T19:15:46.751Z,1009.5
2016-04-11T19:18:50.899Z,1009.46
2016-04-11T19:22:02.110Z,1009.42
2016-04-11T19:25:12.168Z,1009.52
2016-04-11T19:28:23.945Z,1009.44
2016-04-11T19:31:36.159Z,1009.6
2016-04-11T19:34:53.151Z,1009.58
2016-04-11T19:37:57.347Z,1009.5
2016-04-11T19:41:08.855Z,1009.56
2016-04-11T19:44:20.066Z,1009.58
2016-04-11T19:47:33.233Z,1009.46
2016-04-11T19:50:47.226Z,1009.48
2016-04-11T19:53:51.265Z,1009.46
2016-04-11T19:57:04.351Z,1009.34
2016-04-11T20:00:18.125Z,1009.52
2016-04-11T20:03:27.886Z,1009.44
2016-04-11T20:06:38.300Z,1009.36
2016-04-11T20:09:51.161Z,1009.38
2016-04-11T20:13:01.310Z,1009.32
2016-04-11T20:16:12.990Z,1009.32
2016-04-11T20:19:25.828Z,1009.32
2016-04-11T20:22:38.118Z,1009.34
2016-04-11T20:25:50.907Z,1009.36
2016-04-11T20:29:02.947Z,1009.26
2016-04-11T20:32:15.970Z,1009.32
2016-04-11T20:35:28.997Z,1009.46
2016-04-11T20:38:39.661Z,1009.28
2016-04-11T20:41:52.388Z,1009.28
2016-04-11T20:45:05.130Z,1009.3
2016-04-11T20:48:15.733Z,1009.28
2016-04-11T20:51:27.102Z,1009.16
2016-04-11T20:54:39.673Z,1009.12
2016-04-11T20:57:52.868Z,1009.2
2016-04-11T21:00:56.940Z,1009.2
2016-04-11T21:04:07.916Z,1009.14
2016-04-11T21:07:20.956Z,1009.12
2016-04-11T21:10:33.903Z,1009.12
2016-04-11T21:13:50.958Z,1009.12
2016-04-11T21:16:55.169Z,1009.14
2016-04-11T21:20:08.085Z,1008.98
2016-04-11T21:23:19.452Z,1008.96
2016-04-11T21:26:31.806Z,1008.96
2016-04-11T21:29:45.220Z,1009.04
2016-04-11T21:32:53.417Z,1009
2016-04-11T21:35:57.549Z,1008.98
2016-04-11T21:39:10.947Z,1008.96
2016-04-11T21:42:20.956Z,1008.96
2016-04-11T21:45:33.952Z,1009
2016-04-11T21:48:50.959Z,1008.98
2016-04-11T21:51:54.842Z,1008.96
2016-04-11T21:55:07.101Z,1008.88
2016-04-11T21:58:17.983Z,1008.88
2016-04-11T22:01:30.744Z,1008.9
2016-04-11T22:04:47.470Z,1008.98
2016-04-11T22:07:50.604Z,1008.88
2016-04-11T22:11:04.394Z,1008.88
2016-04-11T22:14:16.635Z,1008.94
2016-04-11T22:17:29.257Z,1008.84
2016-04-11T22:20:45.984Z,1008.96
2016-04-11T22:23:53.914Z,1008.78
2016-04-11T22:26:57.875Z,1008.94
2016-04-11T22:30:07.071Z,1008.92
2016-04-11T22:33:19.875Z,1008.88
2016-04-11T22:36:32.742Z,1008.84
2016-04-11T22:39:47.845Z,1008.84
2016-04-11T22:42:51.815Z,1008.92
2016-04-11T22:46:03.979Z,1008.86
2016-04-11T22:49:16.878Z,1008.88
2016-04-11T22:52:28.602Z,1008.82
2016-04-11T22:55:46.823Z,1008.78
2016-04-11T22:58:54.864Z,1008.72
2016-04-11T23:01:58.890Z,1008.72
2016-04-11T23:05:11.118Z,1008.72
2016-04-11T23:08:23.736Z,1008.72
2016-04-11T23:11:36.512Z,1008.68
2016-04-11T23:14:50.535Z,1008.6
2016-04-11T23:17:54.371Z,1008.6
2016-04-11T23:21:07.240Z,1008.62
2016-04-11T23:24:19.920Z,1008.6
2016-04-11T23:27:32.306Z,1008.56
2016-04-11T23:30:45.439Z,1008.5
2016-04-11T23:33:53.228Z,1008.46
2016-04-11T23:36:57.189Z,1008.43
2016-04-11T23:40:09.759Z,1008.44
2016-04-11T23:43:22.049Z,1008.48
2016-04-11T23:46:34.857Z,1008.48
2016-04-11T23:49:51.442Z,1008.5
2016-04-11T23:52:55.248Z,1008.54
2016-04-11T23:56:05.990Z,1008.56
2016-04-11T23:59:16.810Z,1008.52
